Time;durP1;ratioP1;P1;durP2;ratioP2;P2;SDS_P1;SDS_P2;PMS_P1;PMS_P2;Temp;Humidity;BMP_temperature;BMP_pressure;BME280_temperature;BME280_humidity;BME280_pressure;Samples;Min_cycle;Max_cycle;Signal;HPM_P1;HPM_P2
2024/04/12 00:01:16;;;;;;;20.67;16.73;;;;;;;;;;5385755;26;20466;-85
2024/04/12 00:03:42;;;;;;;22.90;16.30;;;;;;;;;;5383422;26;20446;-80
2024/04/12 00:06:15;;;;;;;24.87;16.47;;;;;;;;;;5382954;26;20511;-77
2024/04/12 00:08:52;;;;;;;20.37;17.03;;;;;;;;;;5383747;26;21022;-83
2024/04/12 00:11:19;;;;;;;22.43;15.70;;;;;;;;;;5381980;26;20461;-88
2024/04/12 00:13:49;;;;;;;21.07;17.23;;;;;;;;;;5384083;26;20555;-78
2024/04/12 00:16:25;;;;;;;20.10;15.77;;;;;;;;;;5383477;26;20449;-81
2024/04/12 00:19:07;;;;;;;19.17;15.97;;;;;;;;;;5383367;26;20461;-78
2024/04/12 00:21:33;;;;;;;21.47;16.53;;;;;;;;;;5383775;26;20523;-77
2024/04/12 00:23:59;;;;;;;21.90;15.30;;;;;;;;;;5383415;26;20443;-81
2024/04/12 00:26:29;;;;;;;21.67;16.03;;;;;;;;;;5383690;26;20884;-88
2024/04/12 00:28:58;;;;;;;22.67;17.17;;;;;;;;;;5392670;26;20466;-78
2024/04/12 00:31:26;;;;;;;21.70;17.00;;;;;;;;;;5415288;26;20442;-79
2024/04/12 00:33:55;;;;;;;20.17;15.77;;;;;;;;;;5418712;26;20442;-78
2024/04/12 00:36:24;;;;;;;19.30;15.37;;;;;;;;;;5418851;26;20497;-87
2024/04/12 00:38:55;;;;;;;18.03;15.33;;;;;;;;;;5418627;26;20445;-80
2024/04/12 00:41:24;;;;;;;19.10;14.90;;;;;;;;;;5418583;26;20837;-78
2024/04/12 00:43:52;;;;;;;26.40;15.93;;;;;;;;;;5418466;26;20454;-79
2024/04/12 00:46:25;;;;;;;21.77;17.07;;;;;;;;;;5418770;26;20441;-77
2024/04/12 00:48:52;;;;;;;18.47;13.77;;;;;;;;;;5418212;26;20447;-79
2024/04/12 00:51:21;;;;;;;19.80;16.47;;;;;;;;;;5418618;26;20563;-88
2024/04/12 00:53:48;;;;;;;18.67;15.37;;;;;;;;;;5418608;26;20442;-85
2024/04/12 00:56:14;;;;;;;19.90;15.53;;;;;;;;;;5418543;26;20445;-77
2024/04/12 00:58:42;;;;;;;16.97;14.53;;;;;;;;;;5416833;26;20579;-78
2024/04/12 01:01:15;;;;;;;20.00;15.07;;;;;;;;;;5418556;26;21018;-78
2024/04/12 01:03:55;;;;;;;17.83;14.97;;;;;;;;;;5416196;26;20505;-83
2024/04/12 01:06:24;;;;;;;19.83;15.43;;;;;;;;;;5418776;26;20525;-78
2024/04/12 01:08:51;;;;;;;16.10;12.83;;;;;;;;;;5418426;26;20555;-77
2024/04/12 01:11:19;;;;;;;21.90;15.70;;;;;;;;;;5418312;26;20450;-85
2024/04/12 01:13:49;;;;;;;20.50;13.90;;;;;;;;;;5418307;26;20916;-77
2024/04/12 01:16:15;;;;;;;19.53;13.77;;;;;;;;;;5418218;26;20457;-78
2024/04/12 01:18:44;;;;;;;19.27;14.33;;;;;;;;;;5417585;26;20501;-78
2024/04/12 01:21:10;;;;;;;19.40;16.07;;;;;;;;;;5414989;26;20465;-77
2024/04/12 01:23:43;;;;;;;20.57;14.27;;;;;;;;;;5402913;26;20532;-78
2024/04/12 01:26:09;;;;;;;19.43;15.23;;;;;;;;;;5405598;26;20517;-77
2024/04/12 01:28:41;;;;;;;21.33;16.53;;;;;;;;;;5406635;26;20849;-80
2024/04/12 01:31:06;;;;;;;22.57;17.10;;;;;;;;;;5388717;26;20555;-79
2024/04/12 01:33:34;;;;;;;24.13;18.00;;;;;;;;;;5381914;26;20458;-77
2024/04/12 01:36:10;;;;;;;22.10;16.77;;;;;;;;;;5382889;26;20284;-79
2024/04/12 01:38:37;;;;;;;23.63;16.90;;;;;;;;;;5382477;26;20550;-78
2024/04/12 01:41:08;;;;;;;25.43;16.63;;;;;;;;;;5382509;26;20448;-78
2024/04/12 01:43:38;;;;;;;18.47;15.47;;;;;;;;;;5382249;26;20491;-78
2024/04/12 01:46:07;;;;;;;21.30;17.80;;;;;;;;;;5382265;26;20586;-78
2024/04/12 01:48:33;;;;;;;20.60;17.23;;;;;;;;;;5382010;26;20774;-77
2024/04/12 01:51:02;;;;;;;22.93;16.90;;;;;;;;;;5382372;26;20515;-77
2024/04/12 01:53:28;;;;;;;20.23;16.23;;;;;;;;;;5382128;26;20454;-77
2024/04/12 01:55:55;;;;;;;21.73;17.03;;;;;;;;;;5382219;26;20444;-83
2024/04/12 01:58:21;;;;;;;22.60;17.93;;;;;;;;;;5382236;26;20444;-78
2024/04/12 02:00:47;;;;;;;23.10;19.40;;;;;;;;;;5382138;26;21020;-76
2024/04/12 02:03:13;;;;;;;24.63;17.30;;;;;;;;;;5381632;26;21033;-78
2024/04/12 02:05:39;;;;;;;25.13;19.43;;;;;;;;;;5381880;26;20574;-77
2024/04/12 02:08:16;;;;;;;27.87;20.67;;;;;;;;;;5380260;26;20221;-77
2024/04/12 02:10:42;;;;;;;26.10;19.53;;;;;;;;;;5382019;26;20495;-77
2024/04/12 02:13:10;;;;;;;25.97;18.50;;;;;;;;;;5381859;26;20500;-78
2024/04/12 02:15:36;;;;;;;22.30;19.07;;;;;;;;;;5381935;26;20489;-78
2024/04/12 02:18:02;;;;;;;25.00;18.63;;;;;;;;;;5379670;26;21030;-79
2024/04/12 02:20:35;;;;;;;26.40;17.40;;;;;;;;;;5381816;26;20843;-79
2024/04/12 02:23:05;;;;;;;22.47;17.40;;;;;;;;;;5381933;26;20937;-78
2024/04/12 02:25:35;;;;;;;20.60;17.20;;;;;;;;;;5381635;26;20455;-77
2024/04/12 02:28:07;;;;;;;24.47;18.27;;;;;;;;;;5387865;26;20462;-77
2024/04/12 02:30:41;;;;;;;28.20;20.33;;;;;;;;;;5400607;26;20464;-81
2024/04/12 02:33:08;;;;;;;23.57;17.17;;;;;;;;;;5416760;26;20444;-77
2024/04/12 02:35:34;;;;;;;23.27;17.00;;;;;;;;;;5416988;26;20556;-78
2024/04/12 02:38:00;;;;;;;27.30;18.40;;;;;;;;;;5417115;26;20969;-77
2024/04/12 02:40:26;;;;;;;21.53;17.53;;;;;;;;;;5417254;26;20445;-77
2024/04/12 02:42:52;;;;;;;29.80;16.23;;;;;;;;;;5416355;26;20756;-78
2024/04/12 02:45:18;;;;;;;23.20;15.87;;;;;;;;;;5415097;26;20228;-78
2024/04/12 02:47:44;;;;;;;21.20;16.13;;;;;;;;;;5415037;26;20226;-78
2024/04/12 02:50:10;;;;;;;22.23;17.67;;;;;;;;;;5416672;26;20672;-84
2024/04/12 02:52:40;;;;;;;21.40;17.37;;;;;;;;;;5411228;26;20508;-89
2024/04/12 02:55:13;;;;;;;23.00;17.23;;;;;;;;;;5403833;26;20464;-90
2024/04/12 02:57:41;;;;;;;22.07;15.93;;;;;;;;;;5415717;26;20469;-81
2024/04/12 03:00:21;;;;;;;19.73;15.37;;;;;;;;;;5413527;26;20473;-87
2024/04/12 03:02:47;;;;;;;18.43;14.60;;;;;;;;;;5415336;26;20451;-78
2024/04/12 03:05:13;;;;;;;23.30;15.23;;;;;;;;;;5412901;26;20455;-77
2024/04/12 03:07:41;;;;;;;17.43;14.10;;;;;;;;;;5416366;26;20446;-82
2024/04/12 03:10:07;;;;;;;19.03;14.77;;;;;;;;;;5416622;26;21010;-80
2024/04/12 03:12:36;;;;;;;22.60;15.67;;;;;;;;;;5401728;26;20529;-83
2024/04/12 03:15:04;;;;;;;21.37;15.20;;;;;;;;;;5389057;26;20523;-79
2024/04/12 03:17:30;;;;;;;19.00;14.60;;;;;;;;;;5416130;26;20461;-79
2024/04/12 03:19:55;;;;;;;16.57;11.80;;;;;;;;;;5415700;26;20472;-80
2024/04/12 03:22:21;;;;;;;15.23;12.67;;;;;;;;;;5415997;26;20478;-84
2024/04/12 03:24:47;;;;;;;17.33;12.87;;;;;;;;;;5416181;26;20493;-80
2024/04/12 03:27:13;;;;;;;22.30;15.03;;;;;;;;;;5413660;26;20446;-79
2024/04/12 03:29:40;;;;;;;17.60;13.10;;;;;;;;;;5394443;26;20219;-78
2024/04/12 03:32:07;;;;;;;17.70;12.47;;;;;;;;;;5415848;26;20450;-80
2024/04/12 03:34:36;;;;;;;17.10;12.27;;;;;;;;;;5415498;26;20452;-78
2024/04/12 03:39:47;;;;;;;16.30;12.10;;;;;;;;;;5415777;26;20490;-79
2024/04/12 03:42:18;;;;;;;13.33;10.23;;;;;;;;;;5419124;26;20453;-84
2024/04/12 03:44:44;;;;;;;19.53;11.30;;;;;;;;;;5419439;26;20956;-88
2024/04/12 03:47:10;;;;;;;16.60;11.37;;;;;;;;;;5419322;26;20789;-78
2024/04/12 03:49:40;;;;;;;16.53;11.13;;;;;;;;;;5418933;26;20443;-81
2024/04/12 03:52:11;;;;;;;18.40;13.63;;;;;;;;;;5419396;26;20801;-85
2024/04/12 03:54:38;;;;;;;19.50;12.97;;;;;;;;;;5419474;26;20441;-80
2024/04/12 03:57:09;;;;;;;21.10;14.57;;;;;;;;;;5419082;26;20456;-88
2024/04/12 03:59:35;;;;;;;22.53;14.20;;;;;;;;;;5417261;26;20496;-82
2024/04/12 04:02:06;;;;;;;22.07;16.33;;;;;;;;;;5419193;26;20497;-78
2024/04/12 04:04:37;;;;;;;15.00;12.20;;;;;;;;;;5416934;26;20452;-78
2024/04/12 04:07:03;;;;;;;22.50;14.90;;;;;;;;;;5408173;26;20464;-80
2024/04/12 04:09:29;;;;;;;19.13;14.67;;;;;;;;;;5418540;26;20454;-83
2024/04/12 04:11:56;;;;;;;20.13;14.40;;;;;;;;;;5419038;26;20491;-79
2024/04/12 04:14:25;;;;;;;26.77;16.47;;;;;;;;;;5418852;26;20549;-79
2024/04/12 04:16:52;;;;;;;21.10;14.73;;;;;;;;;;5411591;26;20489;-78
2024/04/12 04:19:30;;;;;;;22.53;16.10;;;;;;;;;;5417683;26;20465;-78
2024/04/12 04:21:58;;;;;;;26.00;15.97;;;;;;;;;;5411037;26;20473;-81
2024/04/12 04:24:24;;;;;;;25.83;16.73;;;;;;;;;;5416264;26;20458;-78
2024/04/12 04:26:50;;;;;;;26.97;16.00;;;;;;;;;;5415158;26;20516;-78
2024/04/12 04:29:16;;;;;;;27.20;17.33;;;;;;;;;;5408482;26;20469;-78
2024/04/12 04:31:49;;;;;;;26.47;17.47;;;;;;;;;;5415545;26;21006;-79
2024/04/12 04:34:15;;;;;;;24.17;16.73;;;;;;;;;;5413298;26;20477;-79
2024/04/12 04:36:41;;;;;;;27.83;17.37;;;;;;;;;;5418197;26;20496;-78
2024/04/12 04:39:07;;;;;;;28.30;19.40;;;;;;;;;;5417615;26;20513;-78
2024/04/12 04:41:33;;;;;;;27.60;17.77;;;;;;;;;;5418067;26;20536;-78
2024/04/12 04:44:00;;;;;;;27.90;18.93;;;;;;;;;;5418284;26;20461;-78
2024/04/12 04:46:27;;;;;;;27.87;19.57;;;;;;;;;;5418282;26;20464;-77
2024/04/12 04:48:56;;;;;;;28.47;19.97;;;;;;;;;;5415813;26;20818;-77
2024/04/12 04:51:22;;;;;;;26.90;17.63;;;;;;;;;;5418010;26;20461;-78
2024/04/12 04:53:52;;;;;;;29.27;19.63;;;;;;;;;;5417298;26;20911;-78
2024/04/12 04:56:24;;;;;;;35.30;19.50;;;;;;;;;;5414259;26;20551;-78
2024/04/12 04:58:50;;;;;;;32.33;19.97;;;;;;;;;;5417959;26;20519;-77
2024/04/12 05:01:17;;;;;;;32.20;20.87;;;;;;;;;;5417776;26;20476;-78
2024/04/12 05:03:43;;;;;;;31.53;19.17;;;;;;;;;;5417327;26;21037;-78
2024/04/12 05:06:12;;;;;;;31.00;21.57;;;;;;;;;;5417823;26;20529;-79
2024/04/12 05:08:39;;;;;;;28.97;21.90;;;;;;;;;;5417961;26;20508;-82
2024/04/12 05:11:08;;;;;;;31.73;22.20;;;;;;;;;;5417855;26;20963;-78
2024/04/12 05:13:38;;;;;;;27.53;19.93;;;;;;;;;;5412942;26;21002;-82
2024/04/12 05:16:15;;;;;;;34.00;21.40;;;;;;;;;;5417651;26;20509;-81
2024/04/12 05:18:44;;;;;;;30.90;20.37;;;;;;;;;;5414329;26;20526;-80
2024/04/12 05:21:12;;;;;;;33.77;21.30;;;;;;;;;;5417224;26;21012;-78
2024/04/12 05:23:39;;;;;;;32.97;23.70;;;;;;;;;;5416827;26;20364;-80
2024/04/12 05:26:06;;;;;;;33.73;22.17;;;;;;;;;;5417679;26;20614;-79
2024/04/12 05:28:32;;;;;;;26.60;19.70;;;;;;;;;;5409672;26;20505;-82
2024/04/12 05:30:59;;;;;;;30.00;19.90;;;;;;;;;;5414129;26;20463;-78
2024/04/12 05:33:27;;;;;;;28.23;19.10;;;;;;;;;;5417015;26;20532;-83
2024/04/12 05:35:53;;;;;;;31.23;21.07;;;;;;;;;;5417318;26;20576;-78
2024/04/12 05:38:21;;;;;;;29.97;22.00;;;;;;;;;;5417430;26;20461;-78
2024/04/12 05:40:54;;;;;;;29.53;19.87;;;;;;;;;;5417515;26;20523;-78
2024/04/12 05:43:21;;;;;;;30.43;20.23;;;;;;;;;;5415519;26;20577;-78
2024/04/12 05:45:49;;;;;;;30.03;21.90;;;;;;;;;;5417397;26;20544;-82
2024/04/12 05:48:15;;;;;;;33.40;22.07;;;;;;;;;;5410671;26;20465;-79
2024/04/12 05:50:42;;;;;;;31.05;23.27;;;;;;;;;;5416169;26;20396;-79
2024/04/12 05:53:11;;;;;;;33.13;23.20;;;;;;;;;;5417070;26;20279;-78
2024/04/12 05:55:44;;;;;;;28.20;20.17;;;;;;;;;;5415357;26;20476;-78
2024/04/12 05:58:10;;;;;;;29.20;21.10;;;;;;;;;;5416991;26;20465;-78
2024/04/12 06:00:36;;;;;;;32.22;23.63;;;;;;;;;;5415614;26;20396;-78
2024/04/12 06:03:02;;;;;;;29.50;22.03;;;;;;;;;;5416652;26;20239;-78
2024/04/12 06:05:28;;;;;;;30.20;20.67;;;;;;;;;;5415436;26;20275;-77
2024/04/12 06:07:58;;;;;;;25.13;19.40;;;;;;;;;;5416802;26;20261;-79
2024/04/12 06:10:25;;;;;;;25.13;19.57;;;;;;;;;;5416901;26;20524;-78
2024/04/12 06:12:54;;;;;;;24.90;18.90;;;;;;;;;;5416670;26;20523;-78
2024/04/12 06:15:21;;;;;;;27.80;20.60;;;;;;;;;;5416950;26;20845;-78
2024/04/12 06:17:49;;;;;;;26.00;18.23;;;;;;;;;;5416483;26;20509;-78
2024/04/12 06:20:30;;;;;;;28.30;19.60;;;;;;;;;;5412262;26;20469;-79
2024/04/12 06:22:57;;;;;;;24.80;18.00;;;;;;;;;;5410622;26;20587;-78
2024/04/12 06:25:25;;;;;;;27.63;19.47;;;;;;;;;;5416515;26;20465;-78
2024/04/12 06:27:52;;;;;;;26.33;19.37;;;;;;;;;;5413259;26;20461;-77
2024/04/12 06:30:24;;;;;;;26.27;17.73;;;;;;;;;;5414481;26;20570;-78
2024/04/12 06:32:50;;;;;;;28.77;18.87;;;;;;;;;;5416337;26;20457;-78
2024/04/12 06:35:20;;;;;;;24.80;17.80;;;;;;;;;;5416535;26;20557;-79
2024/04/12 06:37:47;;;;;;;23.47;17.07;;;;;;;;;;5412827;26;20569;-77
2024/04/12 06:40:15;;;;;;;24.50;17.30;;;;;;;;;;5416612;26;20465;-77
2024/04/12 06:42:42;;;;;;;25.47;17.73;;;;;;;;;;5416313;26;20895;-78
2024/04/12 06:45:15;;;;;;;23.60;18.10;;;;;;;;;;5408538;26;20908;-77
2024/04/12 06:47:41;;;;;;;28.53;19.97;;;;;;;;;;5407688;26;20530;-78
2024/04/12 06:50:11;;;;;;;26.53;17.20;;;;;;;;;;5381188;26;20459;-78
2024/04/12 06:52:37;;;;;;;26.33;19.63;;;;;;;;;;5379420;26;20951;-78
2024/04/12 06:55:07;;;;;;;25.03;15.07;;;;;;;;;;5381375;26;20497;-78
2024/04/12 06:57:33;;;;;;;22.20;16.70;;;;;;;;;;5381365;26;20504;-78
2024/04/12 07:00:01;;;;;;;23.70;18.20;;;;;;;;;;5381158;26;20454;-77
2024/04/12 07:02:29;;;;;;;24.37;16.53;;;;;;;;;;5380887;26;20542;-78
2024/04/12 07:04:56;;;;;;;21.30;17.10;;;;;;;;;;5379310;26;20801;-78
2024/04/12 07:07:23;;;;;;;24.90;16.80;;;;;;;;;;5381044;26;21099;-80
2024/04/12 07:09:49;;;;;;;25.40;17.13;;;;;;;;;;5381062;26;20443;-78
2024/04/12 07:12:19;;;;;;;21.57;16.40;;;;;;;;;;5381007;26;20456;-77
2024/04/12 07:14:46;;;;;;;26.30;16.17;;;;;;;;;;5380971;26;21117;-77
2024/04/12 07:17:21;;;;;;;26.63;16.40;;;;;;;;;;5384296;26;20967;-78
2024/04/12 07:19:50;;;;;;;22.97;15.17;;;;;;;;;;5410468;26;20495;-79
2024/04/12 07:22:20;;;;;;;18.70;13.63;;;;;;;;;;5415458;26;20471;-77
2024/04/12 07:24:52;;;;;;;17.30;13.23;;;;;;;;;;5417475;26;20509;-82
2024/04/12 07:27:22;;;;;;;19.87;13.43;;;;;;;;;;5416418;26;20470;-77
2024/04/12 07:29:48;;;;;;;15.90;12.73;;;;;;;;;;5409282;26;20465;-80
2024/04/12 07:32:15;;;;;;;19.20;13.30;;;;;;;;;;5418681;26;20459;-77
2024/04/12 07:34:50;;;;;;;17.60;13.00;;;;;;;;;;5419155;26;20920;-80
2024/04/12 07:37:32;;;;;;;17.20;12.20;;;;;;;;;;5416561;26;20810;-78
2024/04/12 07:42:46;;;;;;;16.73;11.47;;;;;;;;;;5418514;26;20526;-82
2024/04/12 07:45:17;;;;;;;19.13;12.17;;;;;;;;;;5417484;26;20518;-78
2024/04/12 07:47:52;;;;;;;17.43;11.20;;;;;;;;;;5418699;26;20818;-83
2024/04/12 07:50:21;;;;;;;16.33;11.60;;;;;;;;;;5419163;26;20564;-78
2024/04/12 07:52:50;;;;;;;13.47;10.50;;;;;;;;;;5418910;26;20470;-79
2024/04/12 07:55:23;;;;;;;13.90;9.83;;;;;;;;;;5418728;26;20527;-77
2024/04/12 07:57:52;;;;;;;11.80;8.90;;;;;;;;;;5414427;26;20528;-78
2024/04/12 08:00:27;;;;;;;15.37;10.20;;;;;;;;;;5418738;26;20525;-78
2024/04/12 08:02:55;;;;;;;13.67;9.57;;;;;;;;;;5414779;26;20479;-78
2024/04/12 08:05:25;;;;;;;13.10;9.27;;;;;;;;;;5418801;26;20611;-79
2024/04/12 08:07:56;;;;;;;13.00;9.47;;;;;;;;;;5414672;26;20464;-78
2024/04/12 08:10:41;;;;;;;11.67;8.30;;;;;;;;;;5418729;26;20468;-78
2024/04/12 08:13:10;;;;;;;12.43;9.27;;;;;;;;;;5416478;26;20861;-78
2024/04/12 08:15:40;;;;;;;9.93;8.77;;;;;;;;;;5418748;26;20594;-79
2024/04/12 08:18:06;;;;;;;11.40;7.50;;;;;;;;;;5417949;26;20983;-81
2024/04/12 08:20:39;;;;;;;11.10;8.10;;;;;;;;;;5418346;26;20475;-79
2024/04/12 08:23:04;;;;;;;11.17;8.47;;;;;;;;;;5418389;26;20511;-79
2024/04/12 08:25:33;;;;;;;11.47;7.80;;;;;;;;;;5418485;26;20535;-79
2024/04/12 08:27:58;;;;;;;10.30;9.13;;;;;;;;;;5413602;26;20309;-79
2024/04/12 08:30:28;;;;;;;9.43;7.20;;;;;;;;;;5412994;26;20511;-78
2024/04/12 08:32:55;;;;;;;13.57;8.60;;;;;;;;;;5417809;26;20571;-76
2024/04/12 08:35:24;;;;;;;10.73;7.70;;;;;;;;;;5418201;26;20459;-77
2024/04/12 08:37:51;;;;;;;10.17;7.47;;;;;;;;;;5413902;26;20551;-79
2024/04/12 08:40:19;;;;;;;13.07;7.83;;;;;;;;;;5418325;26;20795;-79
2024/04/12 08:42:45;;;;;;;11.83;8.70;;;;;;;;;;5417951;26;20458;-78
2024/04/12 08:45:14;;;;;;;10.40;7.27;;;;;;;;;;5416446;26;20578;-83
2024/04/12 08:47:51;;;;;;;9.43;7.97;;;;;;;;;;5417847;26;20509;-78
2024/04/12 08:50:23;;;;;;;9.17;6.63;;;;;;;;;;5415594;26;21014;-76
2024/04/12 08:52:52;;;;;;;8.07;6.57;;;;;;;;;;5413419;26;20513;-79
2024/04/12 08:55:28;;;;;;;7.13;5.70;;;;;;;;;;5418301;26;20471;-83
2024/04/12 08:58:00;;;;;;;8.87;6.20;;;;;;;;;;5415062;26;20519;-87
2024/04/12 09:00:31;;;;;;;10.40;6.90;;;;;;;;;;5418124;26;20524;-78
2024/04/12 09:02:59;;;;;;;9.47;7.07;;;;;;;;;;5417925;26;20515;-78
2024/04/12 09:05:28;;;;;;;6.73;4.73;;;;;;;;;;5417900;26;20542;-77
2024/04/12 09:08:03;;;;;;;7.33;6.13;;;;;;;;;;5418159;26;20456;-78
2024/04/12 09:10:36;;;;;;;7.00;5.73;;;;;;;;;;5413331;26;20516;-76
2024/04/12 09:13:08;;;;;;;7.33;6.30;;;;;;;;;;5417768;26;20474;-86
2024/04/12 09:15:35;;;;;;;10.03;6.77;;;;;;;;;;5414700;26;20520;-77
2024/04/12 09:18:07;;;;;;;8.53;7.23;;;;;;;;;;5417417;26;20469;-78
2024/04/12 09:20:35;;;;;;;6.93;6.23;;;;;;;;;;5414092;26;20519;-88
2024/04/12 09:23:15;;;;;;;9.30;5.67;;;;;;;;;;5418027;26;20522;-78
2024/04/12 09:25:45;;;;;;;8.60;5.90;;;;;;;;;;5414298;26;20552;-77
2024/04/12 09:28:16;;;;;;;6.23;4.37;;;;;;;;;;5409460;26;21023;-78
2024/04/12 09:33:31;;;;;;;6.90;5.50;;;;;;;;;;5417070;26;21051;-78
2024/04/12 09:36:02;;;;;;;6.70;5.13;;;;;;;;;;5417711;26;20514;-86
2024/04/12 09:38:29;;;;;;;5.97;5.30;;;;;;;;;;5412742;26;20478;-76
2024/04/12 09:41:03;;;;;;;5.23;4.73;;;;;;;;;;5417760;26;20809;-79
2024/04/12 09:43:31;;;;;;;6.60;5.23;;;;;;;;;;5411101;26;20521;-78
2024/04/12 09:46:08;;;;;;;8.43;5.80;;;;;;;;;;5415909;26;20487;-78
2024/04/12 10:38:42;;;;;;;6.80;4.27;;;;;;;;;;5413161;26;21017;-76
2024/04/12 10:41:08;;;;;;;5.60;3.90;;;;;;;;;;5416349;26;20523;-79
2024/04/12 10:43:35;;;;;;;5.47;3.40;;;;;;;;;;5411510;26;20475;-76
2024/04/12 10:46:04;;;;;;;6.20;4.03;;;;;;;;;;5416443;26;20522;-76
2024/04/12 10:48:30;;;;;;;6.70;4.80;;;;;;;;;;5415855;26;20470;-78
2024/04/12 10:50:57;;;;;;;5.97;3.60;;;;;;;;;;5417449;26;21061;-76
2024/04/12 10:53:23;;;;;;;5.20;4.50;;;;;;;;;;5419601;26;20469;-79
2024/04/12 10:55:52;;;;;;;7.33;5.77;;;;;;;;;;5419514;26;20486;-78
2024/04/12 10:58:18;;;;;;;6.07;4.50;;;;;;;;;;5419799;26;20245;-77
2024/04/12 11:00:48;;;;;;;7.67;5.87;;;;;;;;;;5419689;26;20537;-76
2024/04/12 11:03:17;;;;;;;7.43;5.37;;;;;;;;;;5414412;26;20587;-77
2024/04/12 11:05:50;;;;;;;6.20;4.63;;;;;;;;;;5419566;26;20465;-77
2024/04/12 11:08:16;;;;;;;7.27;6.00;;;;;;;;;;5415123;26;20467;-76
2024/04/12 11:10:54;;;;;;;8.50;5.07;;;;;;;;;;5419713;26;20810;-87
2024/04/12 11:13:28;;;;;;;8.53;6.47;;;;;;;;;;5416173;26;20471;-78
2024/04/12 11:32:42;;;;;;;6.40;4.67;;;;;;;;;;5415886;26;20854;-77
2024/04/12 11:35:12;;;;;;;7.60;5.27;;;;;;;;;;5419349;26;20534;-77
2024/04/12 11:37:41;;;;;;;6.73;4.57;;;;;;;;;;5415458;26;20466;-78
2024/04/12 11:40:16;;;;;;;6.10;4.80;;;;;;;;;;5419254;26;20478;-78
2024/04/12 11:42:45;;;;;;;5.73;4.43;;;;;;;;;;5416224;26;20573;-78
2024/04/12 11:45:14;;;;;;;5.60;5.00;;;;;;;;;;5418937;26;20537;-85
2024/04/12 11:47:40;;;;;;;5.80;4.80;;;;;;;;;;5418709;26;21109;-77
2024/04/12 11:50:10;;;;;;;6.17;4.70;;;;;;;;;;5418997;26;20467;-78
2024/04/12 11:52:37;;;;;;;7.20;5.17;;;;;;;;;;5414509;26;20461;-75
2024/04/12 11:55:06;;;;;;;4.63;4.23;;;;;;;;;;5405636;26;20564;-77
2024/04/12 11:57:36;;;;;;;6.40;4.47;;;;;;;;;;5418645;26;20925;-77
2024/04/12 12:00:08;;;;;;;5.00;4.07;;;;;;;;;;5418600;26;20467;-76
2024/04/12 12:02:34;;;;;;;4.67;4.13;;;;;;;;;;5417068;26;20472;-77
2024/04/12 12:05:00;;;;;;;5.40;4.37;;;;;;;;;;5418187;26;20515;-77
2024/04/12 12:07:27;;;;;;;6.03;3.60;;;;;;;;;;5418623;26;20615;-77
2024/04/12 12:09:52;;;;;;;4.60;4.20;;;;;;;;;;5418693;26;20472;-79
2024/04/12 12:12:22;;;;;;;5.67;4.00;;;;;;;;;;5414455;26;20846;-80
2024/04/12 12:14:51;;;;;;;4.50;3.30;;;;;;;;;;5410228;26;20889;-79
2024/04/12 12:17:18;;;;;;;4.80;4.00;;;;;;;;;;5418093;26;20555;-77
2024/04/12 12:19:47;;;;;;;5.60;4.40;;;;;;;;;;5414514;26;20517;-77
2024/04/12 12:22:13;;;;;;;4.43;3.43;;;;;;;;;;5413730;26;20485;-77
2024/04/12 12:24:39;;;;;;;4.93;3.73;;;;;;;;;;5418524;26;21111;-77
2024/04/12 12:27:08;;;;;;;6.00;3.60;;;;;;;;;;5418333;26;20482;-78
2024/04/12 12:29:38;;;;;;;5.27;3.60;;;;;;;;;;5413509;26;21028;-83
2024/04/12 12:32:04;;;;;;;5.40;3.00;;;;;;;;;;5416117;26;20856;-77
2024/04/12 12:34:33;;;;;;;14.83;3.73;;;;;;;;;;5418135;26;20801;-89
2024/04/12 12:36:59;;;;;;;3.67;3.10;;;;;;;;;;5411670;26;20975;-79
2024/04/12 12:39:30;;;;;;;3.47;2.80;;;;;;;;;;5417467;26;20460;-77
2024/04/12 12:41:56;;;;;;;4.70;3.43;;;;;;;;;;5418331;26;20521;-78
2024/04/12 12:44:22;;;;;;;4.50;3.60;;;;;;;;;;5418162;26;20468;-77
2024/04/12 12:46:48;;;;;;;5.60;3.67;;;;;;;;;;5417746;26;20231;-76
2024/04/12 12:49:25;;;;;;;6.67;3.90;;;;;;;;;;5418060;26;20522;-76
2024/04/12 12:51:51;;;;;;;4.60;3.90;;;;;;;;;;5416114;26;20543;-77
2024/04/12 12:54:18;;;;;;;5.03;2.77;;;;;;;;;;5418028;26;20529;-77
2024/04/12 12:56:44;;;;;;;5.40;3.13;;;;;;;;;;5418040;26;20286;-77
2024/04/12 12:59:10;;;;;;;5.23;3.43;;;;;;;;;;5418030;26;20471;-77
2024/04/12 13:01:36;;;;;;;2.63;2.43;;;;;;;;;;5417532;26;20453;-76
2024/04/12 13:04:07;;;;;;;3.33;2.80;;;;;;;;;;5417750;26;20519;-78
2024/04/12 13:06:34;;;;;;;4.03;3.07;;;;;;;;;;5417801;26;20738;-76
2024/04/12 13:09:00;;;;;;;3.33;3.03;;;;;;;;;;5413046;26;20588;-77
2024/04/12 13:11:26;;;;;;;5.40;3.13;;;;;;;;;;5415980;26;20878;-76
2024/04/12 13:13:52;;;;;;;3.93;3.20;;;;;;;;;;5417180;26;20468;-77
2024/04/12 13:16:18;;;;;;;4.30;2.50;;;;;;;;;;5417447;26;20461;-77
2024/04/12 13:18:52;;;;;;;3.70;2.37;;;;;;;;;;5417793;26;20514;-77
2024/04/12 13:21:18;;;;;;;4.30;2.60;;;;;;;;;;5417523;26;21040;-78
2024/04/12 13:23:46;;;;;;;3.80;2.80;;;;;;;;;;5412499;26;20896;-77
2024/04/12 13:26:33;;;;;;;3.93;3.20;;;;;;;;;;5418214;26;20505;-78
2024/04/12 13:28:59;;;;;;;4.50;3.20;;;;;;;;;;5406537;26;20829;-78
2024/04/12 13:31:29;;;;;;;6.60;3.87;;;;;;;;;;5385480;26;20442;-76
2024/04/12 13:33:55;;;;;;;4.87;3.20;;;;;;;;;;5410359;26;20759;-77
2024/04/12 13:36:21;;;;;;;4.63;3.53;;;;;;;;;;5382437;26;20442;-77
2024/04/12 13:38:48;;;;;;;4.67;3.50;;;;;;;;;;5382672;26;20215;-79
2024/04/12 13:41:15;;;;;;;7.90;3.87;;;;;;;;;;5382469;26;20453;-77
2024/04/12 13:43:45;;;;;;;4.90;3.97;;;;;;;;;;5382407;26;20487;-77
2024/04/12 13:51:49;;;;;;;4.60;3.90;;;;;;;;;;5382400;26;20489;-77
2024/04/12 13:54:20;;;;;;;4.23;3.57;;;;;;;;;;5382392;26;20453;-91
2024/04/12 13:56:46;;;;;;;5.57;4.23;;;;;;;;;;5382315;26;20447;-81
2024/04/12 13:59:12;;;;;;;5.37;3.80;;;;;;;;;;5382241;26;20899;-77
2024/04/12 14:01:41;;;;;;;4.47;3.20;;;;;;;;;;5381812;26;20453;-77
2024/04/12 14:04:17;;;;;;;5.77;4.13;;;;;;;;;;5382409;26;20223;-78
2024/04/12 14:06:46;;;;;;;5.47;3.90;;;;;;;;;;5409876;26;20545;-78
2024/04/12 14:09:13;;;;;;;6.77;3.80;;;;;;;;;;5382108;26;20499;-78
2024/04/12 14:11:39;;;;;;;6.10;4.87;;;;;;;;;;5382081;26;20509;-79
2024/04/12 14:14:05;;;;;;;6.17;4.03;;;;;;;;;;5381703;26;20520;-78
2024/04/12 14:16:32;;;;;;;5.93;4.77;;;;;;;;;;5380838;26;20457;-78
2024/04/12 14:18:58;;;;;;;6.07;4.73;;;;;;;;;;5378804;26;20506;-77
2024/04/12 14:21:26;;;;;;;7.60;5.40;;;;;;;;;;5409533;26;20526;-77
2024/04/12 14:23:52;;;;;;;7.97;5.10;;;;;;;;;;5381903;26;20559;-77
2024/04/12 14:26:18;;;;;;;6.30;5.20;;;;;;;;;;5378046;26;20458;-77
2024/04/12 14:28:44;;;;;;;8.23;5.77;;;;;;;;;;5393111;26;20506;-77
2024/04/12 14:31:10;;;;;;;6.27;4.63;;;;;;;;;;5388553;26;20264;-77
2024/04/12 14:33:38;;;;;;;7.07;5.93;;;;;;;;;;5381888;26;20437;-76
2024/04/12 14:36:04;;;;;;;7.37;6.20;;;;;;;;;;5381834;26;20558;-77
2024/04/12 14:38:30;;;;;;;6.40;5.10;;;;;;;;;;5381625;26;20448;-77
2024/04/12 14:41:02;;;;;;;7.50;5.73;;;;;;;;;;5381698;26;20567;-77
2024/04/12 14:43:28;;;;;;;6.10;5.00;;;;;;;;;;5381544;26;20557;-77
2024/04/12 14:45:54;;;;;;;8.70;6.63;;;;;;;;;;5381234;26;20439;-77
2024/04/12 14:48:20;;;;;;;9.77;6.00;;;;;;;;;;5409305;26;20503;-77
2024/04/12 14:50:49;;;;;;;7.23;5.60;;;;;;;;;;5381448;26;20283;-77
2024/04/12 14:53:18;;;;;;;8.60;6.63;;;;;;;;;;5381443;26;20223;-77
2024/04/12 14:55:47;;;;;;;10.43;6.70;;;;;;;;;;5381431;26;20490;-78
2024/04/12 14:58:16;;;;;;;9.93;8.23;;;;;;;;;;5381288;26;20527;-77
2024/04/12 15:00:42;;;;;;;8.73;6.00;;;;;;;;;;5381173;26;20462;-77
2024/04/12 15:49:45;;;;;;;7.97;6.67;;;;;;;;;;5383419;26;21032;-78
2024/04/12 15:52:12;;;;;;;9.00;6.97;;;;;;;;;;5404039;26;20287;-81
2024/04/12 15:54:51;;;;;;;8.00;6.50;;;;;;;;;;5414610;26;20469;-88
2024/04/12 16:11:02;;;;;;;7.60;5.23;;;;;;;;;;5418811;26;20557;-78
2024/04/12 16:13:29;;;;;;;8.10;5.67;;;;;;;;;;5418720;26;20453;-77
2024/04/12 16:15:55;;;;;;;7.03;5.03;;;;;;;;;;5418126;26;20508;-79
2024/04/12 16:18:21;;;;;;;7.13;5.23;;;;;;;;;;5418446;26;20984;-77
2024/04/12 16:20:47;;;;;;;9.80;4.60;;;;;;;;;;5417904;26;20580;-78
2024/04/12 16:23:16;;;;;;;11.50;4.40;;;;;;;;;;5416906;26;20454;-79
2024/04/12 16:25:45;;;;;;;12.97;5.50;;;;;;;;;;5418632;26;20874;-78
2024/04/12 16:28:12;;;;;;;10.80;4.97;;;;;;;;;;5415452;26;20799;-78
2024/04/12 16:30:41;;;;;;;14.07;6.20;;;;;;;;;;5402929;26;20526;-78
2024/04/12 16:33:07;;;;;;;11.47;4.83;;;;;;;;;;5418784;26;20953;-77
2024/04/12 16:35:32;;;;;;;12.40;4.40;;;;;;;;;;5418477;26;20441;-82
2024/04/12 16:38:03;;;;;;;8.23;3.77;;;;;;;;;;5418389;26;21020;-78
2024/04/12 16:40:31;;;;;;;10.30;3.77;;;;;;;;;;5418330;26;20453;-77
2024/04/12 16:42:57;;;;;;;11.80;4.00;;;;;;;;;;5418503;26;20445;-77
2024/04/12 16:45:24;;;;;;;8.80;3.70;;;;;;;;;;5418105;26;20459;-78
2024/04/12 16:47:50;;;;;;;10.63;3.37;;;;;;;;;;5418055;26;21075;-79
2024/04/12 16:50:17;;;;;;;8.30;4.70;;;;;;;;;;5417522;26;20570;-77
2024/04/12 16:52:45;;;;;;;11.70;4.90;;;;;;;;;;5418419;26;20505;-77
2024/04/12 16:55:12;;;;;;;9.37;4.50;;;;;;;;;;5418271;26;20460;-77
2024/04/12 16:57:38;;;;;;;13.20;4.30;;;;;;;;;;5418181;26;20444;-78